Time;durP1;ratioP1;P1;durP2;ratioP2;P2;SDS_P1;SDS_P2;PMS_P1;PMS_P2;Temp;Humidity;BMP_temperature;BMP_pressure;BME280_temperature;BME280_humidity;BME280_pressure;Samples;Min_cycle;Max_cycle;Signal;HPM_P1;HPM_P2
2021/12/30 00:00:10;;;;;;;237.38;119.47;;;10.00;99.90;;;;;;5113906;28;20149;-60
2021/12/30 00:02:36;;;;;;;210.82;109.05;;;10.10;99.90;;;;;;5113889;28;20480;-61
2021/12/30 00:05:03;;;;;;;158.57;85.57;;;10.00;99.90;;;;;;5113834;28;20112;-62
2021/12/30 00:07:29;;;;;;;230.63;113.45;;;10.10;99.90;;;;;;5113930;28;20034;-62
2021/12/30 00:09:55;;;;;;;284.92;134.63;;;10.10;99.90;;;;;;5113609;28;20020;-61
2021/12/30 00:12:21;;;;;;;233.85;120.72;;;10.00;99.90;;;;;;5114100;28;20474;-61
2021/12/30 00:14:46;;;;;;;192.98;104.63;;;9.90;99.90;;;;;;5113545;28;20108;-61
2021/12/30 00:17:12;;;;;;;177.95;92.65;;;9.80;99.90;;;;;;5113669;28;20031;-62
2021/12/30 00:19:38;;;;;;;166.68;89.15;;;9.80;99.90;;;;;;5113863;28;20019;-60
2021/12/30 00:22:04;;;;;;;140.48;75.82;;;9.80;99.90;;;;;;5113717;28;20022;-61
2021/12/30 00:24:30;;;;;;;173.18;88.85;;;9.80;99.90;;;;;;5113405;28;20051;-62
2021/12/30 00:26:56;;;;;;;174.60;86.88;;;9.80;99.90;;;;;;5113739;28;20062;-62
2021/12/30 00:29:24;;;;;;;167.40;84.82;;;9.80;99.90;;;;;;5113684;28;20024;-61
2021/12/30 00:31:50;;;;;;;139.13;77.68;;;9.90;99.90;;;;;;5113580;28;20465;-60
2021/12/30 00:34:16;;;;;;;143.75;74.63;;;9.90;99.90;;;;;;5113644;28;20076;-61
2021/12/30 00:36:42;;;;;;;135.25;70.82;;;9.90;99.90;;;;;;5113856;28;20461;-62
2021/12/30 00:39:07;;;;;;;127.45;69.43;;;10.00;99.90;;;;;;5113465;28;20011;-60
2021/12/30 00:41:33;;;;;;;127.78;68.60;;;10.00;99.90;;;;;;5113533;28;20027;-61
2021/12/30 00:44:00;;;;;;;135.60;77.88;;;10.00;99.90;;;;;;5113637;28;20055;-62
2021/12/30 00:46:26;;;;;;;140.60;77.47;;;10.00;99.90;;;;;;5113483;28;20035;-61
2021/12/30 00:48:52;;;;;;;173.90;89.25;;;10.00;99.90;;;;;;5113437;28;20011;-62
2021/12/30 00:51:18;;;;;;;168.35;97.63;;;10.00;99.90;;;;;;5113500;28;20020;-61
2021/12/30 00:53:44;;;;;;;285.67;151.80;;;10.00;99.90;;;;;;5113284;28;20520;-60
2021/12/30 00:56:10;;;;;;;237.88;128.88;;;10.00;99.90;;;;;;5113299;28;20485;-63
2021/12/30 00:58:36;;;;;;;274.35;147.88;;;10.00;99.90;;;;;;5116714;28;20026;-62
2021/12/30 01:01:04;;;;;;;284.55;144.85;;;10.00;99.90;;;;;;5117385;28;20085;-61
2021/12/30 01:03:31;;;;;;;270.85;141.48;;;10.00;99.90;;;;;;5117238;28;20031;-60
2021/12/30 01:05:57;;;;;;;250.75;133.07;;;10.00;99.90;;;;;;5117326;27;20385;-62
2021/12/30 01:08:23;;;;;;;264.50;135.50;;;10.00;99.90;;;;;;5117086;28;20067;-61
2021/12/30 01:10:50;;;;;;;234.63;122.57;;;10.00;99.90;;;;;;5117144;28;20477;-61
2021/12/30 01:13:25;;;;;;;213.85;112.60;;;9.90;99.90;;;;;;5117084;28;20473;-61
2021/12/30 08:44:57;;;;;;;123.70;57.30;;;7.80;99.90;;;;;;5108162;27;20404;-61
2021/12/30 08:47:23;;;;;;;97.35;51.08;;;7.90;99.90;;;;;;5096938;28;20094;-57
2021/12/30 08:49:49;;;;;;;159.32;68.53;;;8.10;99.90;;;;;;5109277;28;20077;-69
2021/12/30 08:52:21;;;;;;;137.60;62.53;;;8.30;99.90;;;;;;5108298;28;20031;-61
2021/12/30 08:54:48;;;;;;;164.82;67.53;;;8.40;99.90;;;;;;5109319;28;20024;-58
2021/12/30 08:57:15;;;;;;;133.18;63.85;;;8.60;99.90;;;;;;5101708;28;20085;-64
2021/12/30 08:59:41;;;;;;;108.40;55.75;;;8.70;99.90;;;;;;5098556;28;20367;-62
2021/12/30 09:02:08;;;;;;;103.70;54.55;;;8.80;99.90;;;;;;5092773;28;20095;-56
2021/12/30 09:04:34;;;;;;;114.88;58.45;;;9.00;99.90;;;;;;5100535;28;20036;-58
2021/12/30 09:07:01;;;;;;;106.78;54.70;;;9.10;99.90;;;;;;5100130;28;20028;-62
2021/12/30 09:09:27;;;;;;;95.35;51.42;;;9.20;99.90;;;;;;5124610;27;20102;-62
2021/12/30 09:11:54;;;;;;;98.40;51.78;;;9.40;99.90;;;;;;5127070;28;20062;-61
2021/12/30 09:14:20;;;;;;;85.60;49.60;;;9.60;99.90;;;;;;5119734;28;20573;-62
2021/12/30 09:16:48;;;;;;;82.10;45.72;;;9.80;99.90;;;;;;5116455;28;20034;-60
2021/12/30 09:19:14;;;;;;;82.55;45.97;;;9.90;99.90;;;;;;5112249;28;20548;-58
2021/12/30 09:21:41;;;;;;;113.03;59.65;;;10.10;99.90;;;;;;5117712;28;20060;-62
2021/12/30 09:24:08;;;;;;;111.10;58.28;;;10.30;99.90;;;;;;5114675;28;20024;-65
2021/12/30 09:26:34;;;;;;;83.80;49.33;;;10.50;99.90;;;;;;5122071;28;20389;-60
2021/12/30 09:29:00;;;;;;;91.25;53.67;;;10.70;99.90;;;;;;5120173;28;20035;-56
2021/12/30 09:31:28;;;;;;;81.95;47.63;;;10.90;99.90;;;;;;5127292;27;20065;-61
2021/12/30 09:33:57;;;;;;;127.68;66.35;;;11.00;99.90;;;;;;5120886;27;20043;-61
2021/12/30 09:36:23;;;;;;;107.75;59.42;;;11.10;99.90;;;;;;5109746;28;20027;-63
2021/12/30 09:38:51;;;;;;;108.78;62.75;;;11.20;99.90;;;;;;5127046;28;20014;-63
2021/12/30 09:41:17;;;;;;;132.10;73.07;;;11.30;99.90;;;;;;5127994;28;20019;-63
2021/12/30 09:43:43;;;;;;;106.40;60.38;;;11.40;99.90;;;;;;5124901;28;20416;-61
2021/12/30 09:46:09;;;;;;;132.48;72.68;;;11.50;99.90;;;;;;5126148;28;20024;-63
2021/12/30 09:48:34;;;;;;;98.07;59.88;;;11.50;99.90;;;;;;5126223;28;20026;-65
2021/12/30 09:51:00;;;;;;;94.65;54.13;;;11.50;99.90;;;;;;5122585;27;20028;-63
2021/12/30 09:53:26;;;;;;;106.93;59.05;;;11.70;99.90;;;;;;5122827;27;20034;-63
2021/12/30 09:55:55;;;;;;;89.30;49.70;;;11.70;99.90;;;;;;5114939;28;20383;-59
2021/12/30 09:58:21;;;;;;;81.63;48.55;;;11.80;99.90;;;;;;5113882;28;20024;-66
2021/12/30 10:00:49;;;;;;;104.97;59.35;;;11.90;99.90;;;;;;5095942;28;20381;-60
2021/12/30 10:03:15;;;;;;;98.30;58.95;;;12.20;99.90;;;;;;5098037;28;20031;-55
2021/12/30 10:05:41;;;;;;;91.32;56.40;;;12.40;99.90;;;;;;5111800;28;20023;-62
2021/12/30 10:08:15;;;;;;;110.53;62.90;;;12.50;99.90;;;;;;5112477;28;20026;-60
2021/12/30 10:10:44;;;;;;;104.35;61.85;;;12.60;99.90;;;;;;5113162;28;20036;-64
2021/12/30 10:13:29;;;;;;;102.13;63.97;;;12.80;99.90;;;;;;5108005;28;20024;-64
2021/12/30 10:16:03;;;;;;;103.75;63.88;;;12.80;99.90;;;;;;5105286;28;20096;-57
2021/12/30 10:18:44;;;;;;;103.53;61.83;;;12.90;99.90;;;;;;5112324;28;20016;-57
2021/12/30 10:21:24;;;;;;;97.70;61.25;;;12.70;99.90;;;;;;5100656;28;20017;-63
2021/12/30 10:23:52;;;;;;;90.70;55.35;;;12.70;99.90;;;;;;5096617;28;20983;-61
2021/12/30 10:26:18;;;;;;;73.63;46.92;;;12.70;99.90;;;;;;5105647;28;20085;-64
2021/12/30 10:28:47;;;;;;;66.88;42.50;;;12.90;99.90;;;;;;5109996;28;20397;-65
2021/12/30 10:31:13;;;;;;;51.10;35.10;;;12.90;99.90;;;;;;5107134;28;20024;-54
2021/12/30 10:34:05;;;;;;;54.65;34.92;;;13.10;99.90;;;;;;5101724;28;20473;-63
2021/12/30 10:36:41;;;;;;;53.47;35.92;;;13.20;99.90;;;;;;5103871;28;20508;-66
2021/12/30 10:39:26;;;;;;;70.68;44.90;;;13.30;99.90;;;;;;5109074;28;20464;-61
2021/12/30 10:42:16;;;;;;;65.25;42.80;;;13.30;99.90;;;;;;5106795;28;20020;-69
2021/12/30 10:44:58;;;;;;;65.90;42.05;;;13.20;99.90;;;;;;5113908;27;20500;-62
2021/12/30 10:47:27;;;;;;;66.55;40.97;;;13.10;99.90;;;;;;5111625;28;20039;-62
2021/12/30 10:49:58;;;;;;;72.07;42.17;;;12.90;99.90;;;;;;5113935;28;20093;-69
2021/12/30 10:52:24;;;;;;;65.72;39.75;;;13.10;99.90;;;;;;5113065;28;20042;-67
2021/12/30 10:54:50;;;;;;;59.60;38.90;;;13.30;99.90;;;;;;5111956;28;20042;-63
2021/12/30 10:57:16;;;;;;;58.58;38.30;;;13.40;99.90;;;;;;5110513;28;20485;-65
2021/12/30 10:59:49;;;;;;;67.47;40.63;;;13.60;99.90;;;;;;5111706;28;20038;-59
2021/12/30 11:02:21;;;;;;;71.03;45.05;;;14.00;99.90;;;;;;5112107;28;20023;-57
2021/12/30 11:04:58;;;;;;;72.15;43.03;;;14.20;99.90;;;;;;5108261;28;20681;-66
2021/12/30 11:07:27;;;;;;;72.47;44.33;;;14.40;99.90;;;;;;5100207;28;20019;-68
2021/12/30 11:10:01;;;;;;;55.75;38.03;;;14.70;99.90;;;;;;5112309;28;20032;-67
2021/12/30 11:12:30;;;;;;;57.03;38.50;;;14.80;99.90;;;;;;5112266;28;20106;-65
2021/12/30 11:14:56;;;;;;;51.67;35.33;;;15.00;99.90;;;;;;5100228;27;20036;-66
2021/12/30 11:17:30;;;;;;;59.03;38.20;;;15.00;99.90;;;;;;5100318;28;20026;-63
2021/12/30 11:20:01;;;;;;;53.63;36.58;;;15.10;99.90;;;;;;5110791;28;20088;-62
2021/12/30 11:22:30;;;;;;;47.58;33.72;;;15.40;99.90;;;;;;5093255;28;20028;-64
2021/12/30 11:24:58;;;;;;;39.95;29.17;;;15.50;99.90;;;;;;5091090;28;20035;-62
2021/12/30 11:27:25;;;;;;;39.15;26.13;;;15.70;99.90;;;;;;5103336;28;20093;-64
2021/12/30 11:30:05;;;;;;;39.38;25.73;;;15.80;98.60;;;;;;5111730;28;20068;-62
2021/12/30 11:32:32;;;;;;;34.15;23.77;;;15.70;96.80;;;;;;5096311;28;20020;-61
2021/12/30 11:34:59;;;;;;;26.02;17.33;;;15.70;99.50;;;;;;5096692;28;20453;-60
2021/12/30 11:37:25;;;;;;;26.38;18.02;;;16.00;94.50;;;;;;5091609;28;20020;-62
2021/12/30 11:39:53;;;;;;;28.88;20.75;;;16.20;95.00;;;;;;5091925;28;20044;-63
2021/12/30 11:42:26;;;;;;;30.20;20.95;;;16.50;94.10;;;;;;5103454;28;20474;-63
2021/12/30 11:44:55;;;;;;;37.30;25.17;;;16.70;91.30;;;;;;5110208;28;20054;-64
2021/12/30 11:47:34;;;;;;;31.63;21.02;;;16.80;93.70;;;;;;5093435;28;20027;-63
2021/12/30 11:50:10;;;;;;;28.90;20.27;;;16.90;81.30;;;;;;5099667;28;20077;-66
2021/12/30 11:52:51;;;;;;;27.23;17.70;;;17.10;80.30;;;;;;5109088;28;20028;-66
2021/12/30 11:55:54;;;;;;;15.57;10.52;;;17.10;71.40;;;;;;5109402;28;20028;-65
2021/12/30 12:01:19;;;;;;;12.45;8.27;;;17.00;70.50;;;;;;5109917;28;20267;-61
2021/12/30 12:03:55;;;;;;;14.20;9.57;;;17.00;70.80;;;;;;5101316;28;20035;-62
2021/12/30 12:06:34;;;;;;;22.92;14.65;;;17.00;75.40;;;;;;5111297;28;20507;-61
2021/12/30 12:09:22;;;;;;;21.42;14.82;;;17.20;75.90;;;;;;5111146;28;20423;-66
2021/12/30 12:11:54;;;;;;;25.27;17.42;;;17.60;71.60;;;;;;5111611;28;20350;-60
2021/12/30 12:14:21;;;;;;;26.83;17.70;;;17.60;72.50;;;;;;5110643;28;20012;-64
2021/12/30 12:16:58;;;;;;;41.08;23.90;;;17.60;69.30;;;;;;5110043;28;20019;-62
2021/12/30 12:19:39;;;;;;;32.30;20.08;;;17.60;67.80;;;;;;5110230;28;20020;-64
2021/12/30 12:22:28;;;;;;;28.83;19.52;;;17.50;68.40;;;;;;5110420;28;20137;-62
2021/12/30 12:25:10;;;;;;;29.40;18.35;;;17.40;67.90;;;;;;5090958;28;20481;-61
2021/12/30 12:27:45;;;;;;;27.60;16.88;;;17.20;68.70;;;;;;5109923;28;20473;-57
2021/12/30 12:30:26;;;;;;;24.55;15.27;;;17.00;73.30;;;;;;5111467;28;20030;-57
2021/12/30 12:32:52;;;;;;;23.98;13.88;;;17.10;70.30;;;;;;5110119;28;20110;-62
2021/12/30 12:35:18;;;;;;;21.73;11.95;;;16.90;74.20;;;;;;5112306;28;20456;-61
2021/12/30 12:37:47;;;;;;;15.43;9.65;;;16.80;70.10;;;;;;5112093;28;20028;-62
2021/12/30 12:40:16;;;;;;;21.98;12.20;;;16.90;69.80;;;;;;5111283;28;20023;-66
2021/12/30 12:42:51;;;;;;;12.10;7.60;;;17.10;67.50;;;;;;5078863;28;20046;-67
2021/12/30 12:45:31;;;;;;;20.33;13.00;;;16.90;59.30;;;;;;5099639;28;20060;-69
2021/12/30 12:48:22;;;;;;;21.67;12.98;;;16.60;66.90;;;;;;5093636;28;20099;-67
2021/12/30 12:50:49;;;;;;;23.17;12.70;;;16.50;67.50;;;;;;5072096;28;20397;-69
2021/12/30 12:53:20;;;;;;;15.70;11.25;;;16.20;72.20;;;;;;5089041;28;20385;-64
2021/12/30 12:55:46;;;;;;;18.00;10.48;;;16.20;76.40;;;;;;5101558;28;20056;-63
2021/12/30 12:58:12;;;;;;;12.77;8.43;;;16.20;74.80;;;;;;5088713;28;20040;-59
2021/12/30 13:00:39;;;;;;;14.30;9.00;;;16.40;70.70;;;;;;5088858;28;20301;-60
2021/12/30 13:03:05;;;;;;;12.07;8.75;;;16.20;72.50;;;;;;5089005;28;20115;-58
2021/12/30 13:05:31;;;;;;;14.43;9.70;;;16.30;72.00;;;;;;5087824;28;20107;-60
2021/12/30 13:07:57;;;;;;;11.70;8.73;;;16.40;70.50;;;;;;5089272;28;20024;-53
2021/12/30 13:10:23;;;;;;;16.30;10.77;;;16.60;66.60;;;;;;5091137;28;20023;-59
2021/12/30 13:12:49;;;;;;;16.75;11.40;;;16.80;65.90;;;;;;5090850;28;20496;-64
2021/12/30 13:15:16;;;;;;;17.08;9.75;;;16.90;66.30;;;;;;5109765;28;20055;-61
2021/12/30 13:17:44;;;;;;;14.88;9.88;;;17.00;66.50;;;;;;5113159;28;20110;-60
2021/12/30 13:20:11;;;;;;;12.93;9.15;;;16.70;65.60;;;;;;5113438;28;20028;-60
2021/12/30 13:22:37;;;;;;;12.13;8.73;;;16.60;68.20;;;;;;5106401;28;20434;-60
2021/12/30 13:25:04;;;;;;;11.73;8.10;;;16.50;63.40;;;;;;5093135;28;20020;-60
2021/12/30 13:27:38;;;;;;;11.18;7.80;;;16.60;65.10;;;;;;5092289;28;20020;-60
2021/12/30 13:30:13;;;;;;;11.82;7.93;;;16.60;63.00;;;;;;5094174;28;20124;-56
2021/12/30 13:32:41;;;;;;;11.43;6.65;;;16.50;63.60;;;;;;5096806;28;20431;-57
2021/12/30 13:35:18;;;;;;;10.60;6.35;;;16.20;66.40;;;;;;5095333;28;20103;-58
2021/12/30 13:37:45;;;;;;;8.70;5.35;;;16.00;67.80;;;;;;5095197;28;20024;-54
2021/12/30 13:40:16;;;;;;;11.05;6.80;;;15.90;71.60;;;;;;5095789;28;20012;-57
2021/12/30 13:42:50;;;;;;;8.10;5.90;;;15.80;69.20;;;;;;5098984;28;20083;-56
2021/12/30 13:45:16;;;;;;;7.88;5.35;;;15.70;75.80;;;;;;5116424;28;20032;-58
2021/12/30 13:47:43;;;;;;;11.55;7.00;;;15.60;76.20;;;;;;5107756;28;20500;-57
2021/12/30 13:50:17;;;;;;;10.63;7.32;;;15.60;72.90;;;;;;5110419;28;20075;-56
2021/12/30 13:52:45;;;;;;;14.65;9.23;;;15.40;77.50;;;;;;5107202;28;20024;-58
2021/12/30 13:55:15;;;;;;;10.60;7.43;;;15.40;80.80;;;;;;5110998;28;20373;-59
2021/12/30 13:57:44;;;;;;;11.43;6.70;;;15.10;86.50;;;;;;5112904;28;20031;-56
2021/12/30 14:00:13;;;;;;;11.50;7.18;;;14.90;92.10;;;;;;5082268;28;20114;-57
2021/12/30 14:02:39;;;;;;;11.95;7.70;;;14.90;90.40;;;;;;5092661;28;20016;-57
2021/12/30 14:05:14;;;;;;;9.80;6.88;;;14.70;91.50;;;;;;5093837;28;20080;-55
2021/12/30 14:07:47;;;;;;;15.32;9.68;;;14.70;93.20;;;;;;5107778;28;20423;-58
2021/12/30 14:10:16;;;;;;;16.10;10.25;;;14.70;93.90;;;;;;5094481;28;20035;-56
2021/12/30 14:13:04;;;;;;;17.38;10.75;;;14.60;93.70;;;;;;5094924;28;20028;-56
2021/12/30 14:15:35;;;;;;;18.23;11.27;;;14.40;96.80;;;;;;5094321;28;20027;-57
2021/12/30 14:18:04;;;;;;;16.80;10.52;;;14.40;98.10;;;;;;5094242;28;20024;-55
2021/12/30 14:20:31;;;;;;;19.48;12.07;;;14.50;97.90;;;;;;5094545;28;20031;-57
2021/12/30 14:22:57;;;;;;;26.20;14.82;;;14.60;98.30;;;;;;5093953;28;20086;-57
2021/12/30 14:25:36;;;;;;;20.20;13.65;;;14.70;98.10;;;;;;5093645;28;20027;-56
2021/12/30 14:28:26;;;;;;;22.50;13.20;;;14.70;97.80;;;;;;5092141;28;20032;-57
2021/12/30 14:30:54;;;;;;;21.55;14.65;;;14.70;97.70;;;;;;5093600;28;20021;-58
2021/12/30 14:33:31;;;;;;;28.80;17.88;;;14.60;98.90;;;;;;5095051;28;20028;-57
2021/12/30 14:36:15;;;;;;;78.57;42.63;;;14.60;99.00;;;;;;5094883;28;20081;-57
2021/12/30 14:38:42;;;;;;;91.28;45.83;;;14.60;98.90;;;;;;5094692;28;20474;-57
2021/12/30 14:41:20;;;;;;;81.72;47.28;;;14.40;99.90;;;;;;5095343;28;20024;-58
2021/12/30 14:44:12;;;;;;;102.20;63.95;;;14.20;99.90;;;;;;5095208;28;20086;-56
2021/12/30 14:47:05;;;;;;;123.95;73.43;;;13.70;99.90;;;;;;5095241;28;20020;-57
2021/12/30 14:49:33;;;;;;;143.07;87.10;;;13.20;99.90;;;;;;5086850;28;20028;-56
2021/12/30 14:52:23;;;;;;;79.22;52.97;;;12.90;99.90;;;;;;5095142;28;20043;-57
2021/12/30 14:54:51;;;;;;;222.75;125.47;;;12.80;99.90;;;;;;5054655;28;20039;-58
2021/12/30 14:57:20;;;;;;;364.38;186.85;;;12.70;99.90;;;;;;5095389;28;20032;-56
2021/12/30 14:59:47;;;;;;;457.05;274.40;;;12.60;99.90;;;;;;5095318;28;20415;-56
2021/12/30 15:02:13;;;;;;;299.35;191.48;;;12.50;99.90;;;;;;5094981;28;20028;-55
2021/12/30 15:04:39;;;;;;;245.25;151.65;;;12.30;99.90;;;;;;5094889;28;20089;-56
2021/12/30 15:07:05;;;;;;;223.95;141.30;;;12.20;99.90;;;;;;5094807;28;20024;-53
2021/12/30 15:09:31;;;;;;;202.07;126.82;;;12.10;99.90;;;;;;5094480;28;20074;-55
2021/12/30 15:11:57;;;;;;;230.27;144.07;;;12.10;99.90;;;;;;5093535;28;20020;-57
2021/12/30 15:14:23;;;;;;;195.50;126.80;;;12.20;99.90;;;;;;5092850;28;20103;-57
2021/12/30 15:16:49;;;;;;;237.15;153.55;;;12.10;99.90;;;;;;5094105;28;20051;-57
2021/12/30 15:19:16;;;;;;;184.48;110.80;;;11.90;99.90;;;;;;5094391;28;20039;-56
2021/12/30 15:21:42;;;;;;;169.02;106.20;;;11.70;99.90;;;;;;5094130;28;20028;-57
2021/12/30 15:24:08;;;;;;;172.93;106.05;;;11.70;99.90;;;;;;5094060;28;20024;-58
2021/12/30 15:26:34;;;;;;;211.05;118.07;;;11.60;99.90;;;;;;5094151;28;20035;-56
2021/12/30 15:29:00;;;;;;;191.10;111.07;;;11.40;99.90;;;;;;5094732;28;20024;-57
2021/12/30 15:31:26;;;;;;;137.27;80.13;;;11.20;99.90;;;;;;5076281;28;20355;-56
2021/12/30 15:33:52;;;;;;;204.00;104.95;;;11.10;99.90;;;;;;5094237;28;20027;-57
2021/12/30 15:36:19;;;;;;;175.32;98.10;;;11.10;99.90;;;;;;5094369;28;20035;-57
2021/12/30 15:38:45;;;;;;;188.32;108.00;;;11.10;99.90;;;;;;5094106;28;20024;-57
2021/12/30 15:41:11;;;;;;;330.75;173.38;;;11.20;99.90;;;;;;5094449;28;20051;-55
2021/12/30 15:43:38;;;;;;;311.00;181.02;;;11.40;99.90;;;;;;5094167;28;20044;-57
2021/12/30 15:46:04;;;;;;;332.58;198.25;;;11.40;99.90;;;;;;5094194;28;20067;-55
2021/12/30 15:48:30;;;;;;;278.83;168.70;;;11.40;99.90;;;;;;5094031;28;20048;-57
2021/12/30 15:50:56;;;;;;;246.05;148.38;;;11.40;99.90;;;;;;5094319;28;20031;-58
2021/12/30 15:53:22;;;;;;;248.30;152.32;;;11.30;99.90;;;;;;5093357;28;20024;-55
2021/12/30 15:55:49;;;;;;;187.95;112.53;;;11.40;99.90;;;;;;5093978;28;20142;-57
2021/12/30 15:58:14;;;;;;;186.57;112.15;;;11.50;99.90;;;;;;5094117;28;20032;-57
2021/12/30 16:00:40;;;;;;;160.77;94.85;;;11.50;99.90;;;;;;5094037;28;20028;-56
2021/12/30 16:03:06;;;;;;;187.60;112.13;;;11.40;99.90;;;;;;5093937;28;20103;-57
2021/12/30 16:05:32;;;;;;;169.10;96.35;;;11.30;99.90;;;;;;5093786;28;20048;-57
2021/12/30 16:07:58;;;;;;;194.75;99.57;;;11.20;99.90;;;;;;5093738;28;20105;-55
2021/12/30 16:10:24;;;;;;;152.55;77.65;;;11.10;99.90;;;;;;5093788;28;20473;-53
2021/12/30 16:12:50;;;;;;;165.68;88.13;;;11.10;99.90;;;;;;5093534;28;20099;-58
2021/12/30 16:15:18;;;;;;;152.88;82.80;;;11.10;99.90;;;;;;5093972;28;20028;-57
2021/12/30 16:17:45;;;;;;;167.15;90.50;;;11.20;99.90;;;;;;5093936;28;20035;-57
2021/12/30 16:20:12;;;;;;;191.40;109.20;;;11.40;99.90;;;;;;5093840;28;20024;-57
2021/12/30 16:22:40;;;;;;;183.10;99.15;;;11.50;99.90;;;;;;5093361;28;20023;-57
2021/12/30 16:25:07;;;;;;;170.23;89.50;;;11.40;99.90;;;;;;5093737;28;20031;-56
2021/12/30 16:27:33;;;;;;;141.43;74.55;;;11.30;99.90;;;;;;5093407;28;20069;-56
2021/12/30 16:30:00;;;;;;;123.65;67.63;;;11.50;99.90;;;;;;5093588;28;20373;-57
2021/12/30 16:32:25;;;;;;;116.75;63.83;;;11.60;99.90;;;;;;5093716;28;20053;-58
2021/12/30 16:34:51;;;;;;;132.05;72.97;;;11.60;99.90;;;;;;5093216;28;20561;-57
2021/12/30 16:37:17;;;;;;;192.15;101.57;;;11.70;99.90;;;;;;5093230;28;20036;-56
2021/12/30 16:39:44;;;;;;;197.93;102.07;;;11.60;99.90;;;;;;5093326;28;20023;-57
2021/12/30 16:42:09;;;;;;;197.45;103.85;;;11.50;99.90;;;;;;5093176;28;20024;-56
2021/12/30 16:44:35;;;;;;;219.20;114.20;;;11.40;99.90;;;;;;5092972;28;20055;-57
2021/12/30 16:47:04;;;;;;;223.25;114.35;;;11.50;99.90;;;;;;5093314;28;20055;-56
2021/12/30 16:49:32;;;;;;;215.93;110.00;;;11.50;99.90;;;;;;5093219;28;20497;-55
2021/12/30 16:51:59;;;;;;;195.82;103.55;;;11.60;99.90;;;;;;5093524;28;20039;-57
2021/12/30 16:54:24;;;;;;;187.32;101.07;;;11.60;99.90;;;;;;5093129;28;20062;-58
2021/12/30 16:56:50;;;;;;;191.10;100.13;;;11.70;99.90;;;;;;5093179;28;20016;-56
2021/12/30 16:59:19;;;;;;;188.38;95.28;;;11.70;99.90;;;;;;5093346;28;20107;-57
2021/12/30 17:01:46;;;;;;;239.75;114.53;;;11.70;99.90;;;;;;5093274;28;20070;-58
2021/12/30 17:04:11;;;;;;;260.77;125.93;;;11.60;99.90;;;;;;5093044;28;20110;-57
2021/12/30 17:06:37;;;;;;;327.55;157.63;;;11.50;99.90;;;;;;5096928;28;20107;-57
2021/12/30 17:09:03;;;;;;;420.38;212.15;;;11.30;99.90;;;;;;5097325;28;20027;-55
2021/12/30 17:11:29;;;;;;;331.95;163.98;;;11.20;99.90;;;;;;5097235;28;20020;-57
2021/12/30 17:13:55;;;;;;;288.58;147.75;;;11.10;99.90;;;;;;5096911;28;20111;-55
2021/12/30 17:16:21;;;;;;;248.35;128.60;;;11.10;99.90;;;;;;5097110;28;20031;-56
2021/12/30 17:18:47;;;;;;;240.05;126.15;;;11.00;99.90;;;;;;5097114;28;20032;-55
2021/12/30 17:21:14;;;;;;;206.18;108.65;;;11.00;99.90;;;;;;5096858;28;20033;-56
2021/12/30 17:23:40;;;;;;;176.35;98.10;;;11.10;99.90;;;;;;5097180;28;20028;-54
2021/12/30 17:26:06;;;;;;;171.30;91.90;;;11.20;99.90;;;;;;5096995;28;20020;-57
2021/12/30 17:28:33;;;;;;;343.13;159.18;;;11.20;99.90;;;;;;5096644;28;20026;-55
2021/12/30 17:30:59;;;;;;;362.27;186.00;;;11.20;99.90;;;;;;5097019;28;20048;-56
2021/12/30 17:33:25;;;;;;;493.50;266.02;;;11.00;99.90;;;;;;5096455;28;20165;-57
2021/12/30 17:35:53;;;;;;;525.35;295.40;;;10.80;99.90;;;;;;5096868;28;20115;-56
2021/12/30 17:38:19;;;;;;;349.02;183.63;;;10.60;99.90;;;;;;5096629;28;20024;-55
2021/12/30 17:40:46;;;;;;;294.85;157.77;;;10.40;99.90;;;;;;5096555;28;20098;-58
2021/12/30 17:43:12;;;;;;;219.55;114.95;;;10.10;99.90;;;;;;5096495;28;20078;-57
2021/12/30 17:45:39;;;;;;;251.93;135.52;;;10.10;99.90;;;;;;5096722;28;20031;-56
2021/12/30 17:48:05;;;;;;;253.77;134.77;;;10.10;99.90;;;;;;5096281;28;20020;-57
2021/12/30 17:50:33;;;;;;;280.55;149.85;;;10.00;99.90;;;;;;5096420;28;20031;-53
2021/12/30 17:53:02;;;;;;;265.92;146.10;;;10.10;99.90;;;;;;5096524;28;20028;-57
2021/12/30 17:55:30;;;;;;;304.77;165.23;;;10.30;99.90;;;;;;5096384;28;20386;-57
2021/12/30 17:57:57;;;;;;;273.13;151.38;;;10.40;99.90;;;;;;5096446;28;20032;-58
2021/12/30 18:00:26;;;;;;;377.88;206.85;;;10.30;99.90;;;;;;5096528;28;20074;-55
2021/12/30 18:02:52;;;;;;;414.98;232.43;;;10.40;99.90;;;;;;5096095;28;20035;-56
2021/12/30 18:05:18;;;;;;;427.60;250.90;;;10.30;99.90;;;;;;5096102;28;20052;-57
2021/12/30 18:07:44;;;;;;;351.25;192.52;;;10.20;99.90;;;;;;5095978;28;20056;-57
2021/12/30 18:10:10;;;;;;;276.70;144.73;;;10.00;99.90;;;;;;5096124;28;20085;-54
2021/12/30 18:12:36;;;;;;;277.77;144.23;;;10.00;99.90;;;;;;5096023;28;20023;-58
2021/12/30 18:15:03;;;;;;;289.92;150.25;;;10.00;99.90;;;;;;5095758;28;20374;-56
2021/12/30 18:17:29;;;;;;;301.00;156.88;;;10.10;99.90;;;;;;5095333;28;20078;-57
2021/12/30 18:19:55;;;;;;;275.00;144.82;;;10.10;99.90;;;;;;5095867;28;20020;-57
2021/12/30 18:22:21;;;;;;;291.52;152.13;;;10.20;99.90;;;;;;5095745;28;20386;-55
2021/12/30 18:24:49;;;;;;;317.67;168.20;;;10.30;99.90;;;;;;5095953;28;20418;-54
2021/12/30 18:27:19;;;;;;;368.02;195.10;;;10.30;99.90;;;;;;5095805;28;20373;-58
2021/12/30 18:29:48;;;;;;;398.13;224.57;;;10.20;99.90;;;;;;5095842;28;20024;-57
2021/12/30 18:32:15;;;;;;;347.77;200.55;;;10.10;99.90;;;;;;5095619;28;20452;-57
2021/12/30 18:34:40;;;;;;;408.13;232.82;;;10.00;99.90;;;;;;5095500;28;20028;-57
2021/12/30 18:37:07;;;;;;;264.10;149.38;;;10.10;99.90;;;;;;5095687;28;20489;-57
2021/12/30 18:39:33;;;;;;;251.90;138.52;;;10.10;99.90;;;;;;5095483;28;20020;-56
2021/12/30 18:42:00;;;;;;;228.60;127.07;;;10.00;99.90;;;;;;5095488;28;20078;-54
2021/12/30 18:44:27;;;;;;;252.52;141.68;;;10.00;99.90;;;;;;5095101;28;20040;-56
2021/12/30 18:46:54;;;;;;;292.15;162.95;;;10.10;99.90;;;;;;5095179;28;20024;-58
2021/12/30 18:49:21;;;;;;;245.73;144.07;;;9.80;99.90;;;;;;5095551;28;20027;-57
2021/12/30 18:51:48;;;;;;;267.42;141.18;;;9.90;99.90;;;;;;5095187;28;20378;-55
2021/12/30 18:54:14;;;;;;;375.15;191.05;;;10.00;99.90;;;;;;5095348;28;20115;-57
2021/12/30 18:56:40;;;;;;;438.58;218.00;;;10.00;99.90;;;;;;5095162;28;20100;-58
2021/12/30 18:59:06;;;;;;;367.33;185.98;;;10.00;99.90;;;;;;5095270;28;20016;-57
2021/12/30 19:01:32;;;;;;;332.15;170.95;;;9.90;99.90;;;;;;5094768;28;20111;-57
2021/12/30 19:03:57;;;;;;;305.05;156.02;;;9.90;99.90;;;;;;5095105;28;20024;-57
2021/12/30 19:06:23;;;;;;;348.35;183.45;;;10.10;99.90;;;;;;5094808;28;20022;-57
2021/12/30 19:08:49;;;;;;;294.20;153.35;;;10.10;99.90;;;;;;5095105;28;20028;-56
2021/12/30 19:11:15;;;;;;;288.80;158.43;;;10.00;99.90;;;;;;5094816;28;20099;-56
2021/12/30 19:13:41;;;;;;;242.82;132.80;;;9.80;99.90;;;;;;5094788;28;20028;-56
2021/12/30 19:16:08;;;;;;;255.68;134.55;;;9.90;99.90;;;;;;5094538;28;20385;-57
2021/12/30 19:18:38;;;;;;;272.17;137.30;;;9.90;99.90;;;;;;5094842;28;20047;-57
2021/12/30 19:21:10;;;;;;;381.48;184.07;;;10.00;99.90;;;;;;5094687;28;20020;-56
2021/12/30 19:23:38;;;;;;;292.15;147.27;;;10.00;99.90;;;;;;5094755;28;20165;-57
2021/12/30 19:26:05;;;;;;;250.93;127.13;;;9.90;99.90;;;;;;5094733;28;20059;-55
2021/12/30 19:28:32;;;;;;;229.43;118.32;;;9.90;99.90;;;;;;5093589;28;20024;-57
2021/12/30 19:30:59;;;;;;;260.27;131.65;;;9.90;99.90;;;;;;5094562;28;20028;-56
2021/12/30 19:33:25;;;;;;;233.77;118.15;;;9.90;99.90;;;;;;5094475;28;20413;-56
2021/12/30 19:35:52;;;;;;;212.20;108.63;;;9.90;99.90;;;;;;5094386;28;20525;-57
2021/12/30 19:38:18;;;;;;;198.63;100.65;;;9.90;99.90;;;;;;5094310;28;20016;-57
2021/12/30 19:40:44;;;;;;;172.07;89.78;;;10.00;99.90;;;;;;5094294;28;20043;-57
2021/12/30 19:43:11;;;;;;;175.95;87.97;;;10.10;99.90;;;;;;5094131;28;20032;-57
2021/12/30 19:45:38;;;;;;;172.95;85.85;;;10.10;99.90;;;;;;5094317;28;20024;-55
2021/12/30 19:48:05;;;;;;;227.60;110.65;;;10.20;99.90;;;;;;5094205;28;20016;-57
2021/12/30 19:50:37;;;;;;;214.52;109.82;;;10.10;99.90;;;;;;5094041;28;20078;-57
2021/12/30 19:53:04;;;;;;;197.10;103.60;;;10.00;99.90;;;;;;5094185;28;20029;-55
2021/12/30 19:55:30;;;;;;;183.07;95.93;;;9.90;99.90;;;;;;5094148;28;20020;-56
2021/12/30 19:57:56;;;;;;;160.68;87.35;;;9.80;99.90;;;;;;5093975;28;20481;-57
2021/12/30 20:00:26;;;;;;;220.63;113.40;;;9.80;99.90;;;;;;5093676;28;20485;-56